Time;durP1;ratioP1;P1;durP2;ratioP2;P2;SDS_P1;SDS_P2;PMS_P1;PMS_P2;Temp;Humidity;BMP_temperature;BMP_pressure;BME280_temperature;BME280_humidity;BME280_pressure;Samples;Min_cycle;Max_cycle;Signal;HPM_P1;HPM_P2
2022/05/28 00:00:56;;;;;;;;;8.40;6.40;;;;;15.75;57.30;98528.03;6288232;27;98168;-68
2022/05/28 00:04:04;;;;;;;;;6.40;5.60;;;;;15.69;57.29;98526.38;6288350;27;96692;-66
2022/05/28 00:07:08;;;;;;;;;6.00;6.00;;;;;15.59;57.43;98520.88;6284264;27;97430;-66
2022/05/28 00:10:14;;;;;;;;;6.40;5.40;;;;;15.57;57.37;98523.06;6243904;27;96912;-67
2022/05/28 00:13:18;;;;;;;;;4.00;4.00;;;;;15.52;57.49;98537.44;6289125;27;96784;-67
2022/05/28 00:16:24;;;;;;;;;5.00;5.00;;;;;15.60;57.06;98530.66;6276554;27;96386;-67
2022/05/28 00:19:28;;;;;;;;;5.60;4.60;;;;;15.56;57.08;98530.38;6252423;27;98424;-67
2022/05/28 00:22:31;;;;;;;;;6.25;5.00;;;;;15.54;57.21;98537.19;6269044;27;97398;-67
2022/05/28 00:25:35;;;;;;;;;5.75;5.00;;;;;15.60;57.09;98541.53;6267321;27;99492;-67
2022/05/28 00:28:38;;;;;;;;;8.00;7.00;;;;;15.57;57.04;98542.91;6268105;27;98301;-66
2022/05/28 00:31:43;;;;;;;;;6.00;6.00;;;;;15.52;57.36;98536.59;6269551;27;98517;-67
2022/05/28 00:34:49;;;;;;;;;4.60;4.00;;;;;15.54;57.09;98527.09;6287981;27;96710;-68
2022/05/28 00:37:52;;;;;;;;;6.00;5.80;;;;;15.57;57.11;98523.06;6269440;27;96849;-66
2022/05/28 00:40:58;;;;;;;;;6.00;6.00;;;;;15.57;57.19;98520.34;6269133;27;97325;-67
2022/05/28 00:44:04;;;;;;;;;6.00;6.00;;;;;15.50;56.77;98506.13;6287421;27;98059;-66
2022/05/28 00:47:09;;;;;;;;;8.00;6.00;;;;;15.66;56.50;98513.31;6288062;27;97819;-66
2022/05/28 00:50:14;;;;;;;;;6.00;5.00;;;;;15.60;56.31;98500.78;6287505;27;97343;-67
2022/05/28 00:53:17;;;;;;;;;6.40;6.00;;;;;15.69;56.23;98511.97;6268119;27;98580;-66
2022/05/28 00:56:22;;;;;;;;;6.33;6.33;;;;;15.70;56.25;98503.56;6286864;27;97465;-67
2022/05/28 00:59:26;;;;;;;;;6.40;6.00;;;;;15.70;56.16;98509.00;6243579;27;96963;-67
2022/05/28 01:02:43;;;;;;;;;6.20;6.00;;;;;15.65;56.46;98508.16;6266935;27;98457;-67
2022/05/28 01:05:55;;;;;;;;;6.00;5.60;;;;;15.68;56.38;98516.59;6287329;27;97633;-66
2022/05/28 01:09:09;;;;;;;;;4.40;4.40;;;;;15.72;56.51;98511.47;6286777;27;96984;-66
2022/05/28 01:12:15;;;;;;;;;6.00;6.00;;;;;15.80;56.33;98508.22;6264751;27;99430;-67
2022/05/28 01:15:22;;;;;;;;;6.00;6.00;;;;;15.77;56.41;98512.31;6265667;27;97668;-68
2022/05/28 01:18:33;;;;;;;;;5.00;5.00;;;;;15.68;56.56;98507.63;6245576;27;97244;-67
2022/05/28 01:21:43;;;;;;;;;6.00;6.00;;;;;15.65;56.40;98506.25;6287513;27;96502;-67
2022/05/28 01:24:56;;;;;;;;;8.40;6.40;;;;;15.57;56.60;98507.56;6286693;27;97665;-66
2022/05/28 01:28:05;;;;;;;;;6.00;6.00;;;;;15.58;56.49;98508.41;6286033;27;97661;-66
2022/05/28 01:31:11;;;;;;;;;7.60;6.20;;;;;15.52;56.72;98510.25;6284078;27;97343;-66
2022/05/28 01:34:17;;;;;;;;;7.00;5.40;;;;;15.53;56.51;98498.31;6266811;27;97537;-66
2022/05/28 01:37:22;;;;;;;;;6.00;6.00;;;;;15.55;56.42;98504.28;6268104;27;96737;-67
2022/05/28 01:40:27;;;;;;;;;6.00;6.00;;;;;15.51;56.51;98500.47;6258722;27;97669;-67
2022/05/28 01:43:33;;;;;;;;;7.00;7.00;;;;;15.55;56.06;98504.28;6285805;27;97738;-65
2022/05/28 01:46:39;;;;;;;;;6.60;6.00;;;;;15.57;56.04;98496.72;6266441;27;97291;-65
2022/05/28 01:49:44;;;;;;;;;5.00;5.00;;;;;15.62;55.97;98501.34;6285443;27;97143;-68
2022/05/28 01:52:49;;;;;;;;;5.40;5.40;;;;;15.63;55.74;98485.88;6266959;27;96692;-67
2022/05/28 01:55:53;;;;;;;;;5.00;5.00;;;;;15.60;55.76;98487.19;6279861;27;96899;-67
2022/05/28 01:58:58;;;;;;;;;7.00;6.00;;;;;15.58;55.66;98483.94;6290943;27;97461;-65
2022/05/28 02:02:04;;;;;;;;;6.80;6.00;;;;;15.61;55.53;98480.69;6267990;27;98027;-65
2022/05/28 02:05:08;;;;;;;;;9.00;7.00;;;;;15.65;55.37;98484.50;6270820;27;96942;-67
2022/05/28 02:08:12;;;;;;;;;6.00;6.00;;;;;15.68;55.29;98489.44;6272132;27;97202;-67
2022/05/28 02:11:18;;;;;;;;;6.00;5.25;;;;;15.65;55.44;98481.78;6290118;27;97631;-66
2022/05/28 02:14:33;;;;;;;;;5.50;5.00;;;;;15.63;55.38;98489.41;6290606;27;96822;-65
2022/05/28 02:17:46;;;;;;;;;6.00;5.00;;;;;15.60;55.42;98488.03;6270976;27;96968;-67
2022/05/28 02:21:01;;;;;;;;;7.00;6.00;;;;;15.56;55.56;98481.47;6283693;27;98409;-67
2022/05/28 02:24:12;;;;;;;;;7.80;6.20;;;;;15.51;55.54;98488.78;6255674;27;97461;-67
2022/05/28 02:27:19;;;;;;;;;6.00;5.20;;;;;15.39;55.67;98483.53;6251056;27;97189;-65
2022/05/28 02:30:24;;;;;;;;;6.00;5.00;;;;;15.23;55.85;98484.50;6282905;27;98037;-67
2022/05/28 02:33:27;;;;;;;;;7.40;6.40;;;;;15.13;56.11;98492.59;6283838;27;96772;-65
2022/05/28 02:36:31;;;;;;;;;6.40;5.00;;;;;15.10;56.10;98501.25;6285299;27;96680;-66
2022/05/28 02:39:34;;;;;;;;;7.50;5.50;;;;;15.09;56.24;98497.72;6255168;27;98336;-67
2022/05/28 02:42:38;;;;;;;;;6.00;6.00;;;;;15.17;56.04;98491.81;6247134;27;96748;-67
2022/05/28 02:45:43;;;;;;;;;6.80;5.80;;;;;15.22;56.63;98490.19;6281617;27;96520;-66
2022/05/28 02:48:46;;;;;;;;;6.00;5.00;;;;;15.24;56.70;98490.75;6289387;27;97541;-65
2022/05/28 02:51:50;;;;;;;;;6.00;6.00;;;;;15.27;56.66;98482.91;6254784;27;97888;-67
2022/05/28 02:54:53;;;;;;;;;6.00;5.00;;;;;15.33;56.79;98483.75;6290440;27;97782;-66
2022/05/28 02:57:56;;;;;;;;;6.00;6.00;;;;;15.29;56.43;98480.75;6289376;27;96907;-65
2022/05/28 03:01:04;;;;;;;;;5.75;5.00;;;;;15.27;56.41;98485.63;6270485;27;99535;-67
2022/05/28 03:04:08;;;;;;;;;7.60;7.00;;;;;15.25;56.17;98485.06;6268694;27;96656;-67
2022/05/28 03:07:12;;;;;;;;;6.00;5.00;;;;;15.15;56.21;98477.66;6285246;27;97428;-67
2022/05/28 03:10:15;;;;;;;;;6.00;6.00;;;;;15.31;56.25;98484.00;6288305;27;96908;-66
2022/05/28 03:13:19;;;;;;;;;6.80;6.00;;;;;15.34;56.44;98498.97;6289395;27;97470;-66
2022/05/28 03:16:23;;;;;;;;;7.00;6.00;;;;;15.38;56.46;98498.19;6247071;27;99448;-66
2022/05/28 03:19:27;;;;;;;;;7.00;6.60;;;;;15.41;56.30;98489.50;6285399;27;96746;-66
2022/05/28 03:22:31;;;;;;;;;7.00;6.50;;;;;15.41;56.37;98499.56;6288182;27;96608;-67
2022/05/28 03:25:34;;;;;;;;;7.00;6.00;;;;;15.50;56.15;98492.53;6269116;27;96824;-66
2022/05/28 03:28:37;;;;;;;;;6.00;5.00;;;;;15.58;56.16;98495.63;6280304;27;96663;-65
2022/05/28 03:31:42;;;;;;;;;7.00;6.00;;;;;15.63;55.97;98502.16;6268093;27;96744;-67
2022/05/28 03:34:45;;;;;;;;;7.20;6.80;;;;;15.64;55.94;98499.16;6265105;27;97776;-66
2022/05/28 03:37:49;;;;;;;;;7.00;7.00;;;;;15.67;56.10;98498.66;6286096;27;96782;-67
2022/05/28 03:40:52;;;;;;;;;8.00;8.00;;;;;15.70;56.08;98491.88;6268367;27;97435;-67
2022/05/28 03:43:56;;;;;;;;;7.80;7.80;;;;;15.65;56.15;98494.56;6285838;27;97471;-66
2022/05/28 03:47:00;;;;;;;;;8.00;7.00;;;;;15.61;56.24;98507.88;6269088;27;97843;-67
2022/05/28 03:50:04;;;;;;;;;5.00;5.00;;;;;15.59;56.36;98505.41;6285585;27;97424;-67
2022/05/28 03:53:08;;;;;;;;;7.00;6.00;;;;;15.66;56.44;98509.78;6266936;27;96725;-67
2022/05/28 03:56:11;;;;;;;;;7.20;7.00;;;;;15.71;56.43;98504.38;6288378;27;97563;-66
2022/05/28 03:59:15;;;;;;;;;5.00;5.00;;;;;15.79;56.46;98493.00;6241864;27;97640;-66
2022/05/28 04:02:20;;;;;;;;;6.00;5.60;;;;;15.89;56.56;98498.47;6264859;27;97507;-66
2022/05/28 04:05:24;;;;;;;;;6.00;6.00;;;;;15.92;56.55;98495.25;6286806;27;97143;-66
2022/05/28 04:08:27;;;;;;;;;5.75;5.75;;;;;15.88;56.63;98483.28;6287803;27;96761;-66
2022/05/28 04:11:31;;;;;;;;;9.00;8.00;;;;;15.75;56.67;98467.44;6289027;27;96554;-67
2022/05/28 04:14:35;;;;;;;;;5.00;5.00;;;;;15.84;56.77;98461.22;6282443;27;97207;-65
2022/05/28 04:17:40;;;;;;;;;7.20;6.20;;;;;15.88;56.94;98464.25;6268977;27;97708;-66
2022/05/28 04:20:44;;;;;;;;;6.50;6.00;;;;;16.06;56.69;98462.94;6264103;27;97802;-66
2022/05/28 04:23:47;;;;;;;;;7.00;6.00;;;;;16.17;56.69;98465.44;6278139;27;97145;-66
2022/05/28 04:26:50;;;;;;;;;5.60;5.00;;;;;16.25;56.86;98461.34;6283254;27;97192;-65
2022/05/28 04:29:54;;;;;;;;;8.00;7.00;;;;;16.32;56.49;98467.38;6279068;27;96856;-67
2022/05/28 04:32:58;;;;;;;;;8.80;6.80;;;;;16.36;56.25;98468.47;6278187;27;97713;-65
2022/05/28 04:36:02;;;;;;;;;7.00;7.00;;;;;16.30;56.62;98470.34;6273721;27;97344;-68
2022/05/28 04:39:05;;;;;;;;;7.00;7.00;;;;;16.26;56.28;98477.41;6268699;27;96598;-67
2022/05/28 04:42:09;;;;;;;;;10.00;8.00;;;;;16.17;56.50;98470.06;6284401;27;96438;-67
2022/05/28 04:45:12;;;;;;;;;7.00;6.00;;;;;16.16;56.37;98474.66;6283587;27;98482;-66
2022/05/28 04:48:17;;;;;;;;;7.00;6.25;;;;;16.26;56.39;98480.13;6265306;27;98391;-68
2022/05/28 04:51:20;;;;;;;;;6.60;6.00;;;;;16.28;56.25;98483.38;6260817;27;97815;-65
2022/05/28 04:54:23;;;;;;;;;7.20;7.00;;;;;16.24;56.35;98479.56;6284730;27;96942;-67
2022/05/28 04:57:27;;;;;;;;;7.20;6.80;;;;;16.28;56.38;98477.94;6284488;27;97316;-66
2022/05/28 05:00:30;;;;;;;;;8.00;7.00;;;;;16.33;56.14;98474.41;6284345;27;96569;-65
2022/05/28 05:03:35;;;;;;;;;7.00;7.00;;;;;16.36;55.92;98477.44;6286356;27;96681;-66
2022/05/28 05:06:38;;;;;;;;;8.40;7.60;;;;;16.35;55.91;98485.88;6286125;27;97443;-67
2022/05/28 05:09:42;;;;;;;;;7.00;6.00;;;;;16.39;55.88;98487.78;6285821;27;97217;-67
2022/05/28 05:12:46;;;;;;;;;6.40;6.40;;;;;16.32;55.92;98468.16;6248791;27;96846;-65
2022/05/28 05:15:49;;;;;;;;;8.00;7.60;;;;;16.61;55.63;98493.03;6265383;27;97475;-67
2022/05/28 05:18:54;;;;;;;;;9.20;9.00;;;;;16.70;55.29;98490.59;6278976;27;96694;-67
2022/05/28 05:21:57;;;;;;;;;7.00;7.00;;;;;16.82;54.90;98489.22;6285344;27;97813;-67
2022/05/28 05:25:01;;;;;;;;;7.20;6.00;;;;;16.84;54.74;98497.13;6286144;27;97491;-67
2022/05/28 05:28:06;;;;;;;;;9.00;7.25;;;;;16.91;54.72;98491.41;6251517;27;97812;-66
2022/05/28 05:31:10;;;;;;;;;9.00;7.00;;;;;16.93;54.58;98489.22;6287731;27;97507;-66
2022/05/28 05:34:14;;;;;;;;;9.00;8.00;;;;;17.02;54.46;98493.03;6251490;27;98457;-65
2022/05/28 05:37:18;;;;;;;;;8.00;8.00;;;;;17.09;54.53;98499.84;6285821;27;96647;-67
2022/05/28 05:40:21;;;;;;;;;7.40;7.00;;;;;17.14;54.06;98496.31;6276062;27;97398;-67
2022/05/28 05:43:25;;;;;;;;;6.80;5.80;;;;;17.49;53.72;98487.28;6268237;27;97029;-66
2022/05/28 05:46:28;;;;;;;;;8.00;7.00;;;;;17.48;51.99;98485.63;6287450;27;97012;-64
2022/05/28 05:49:33;;;;;;;;;8.00;7.00;;;;;17.44;51.40;98470.94;6284365;27;97254;-66
2022/05/28 05:52:37;;;;;;;;;7.00;6.00;;;;;17.69;50.55;98485.31;6254728;27;97910;-65
2022/05/28 05:55:49;;;;;;;;;5.20;5.20;;;;;17.75;50.62;98462.41;6269968;27;97888;-67
2022/05/28 05:58:53;;;;;;;;;4.00;4.00;;;;;18.09;50.16;98497.16;6263700;27;97705;-66
2022/05/28 06:01:56;;;;;;;;;5.00;4.25;;;;;18.20;49.23;98487.84;6286518;27;97998;-66
2022/05/28 06:05:01;;;;;;;;;5.00;4.20;;;;;18.10;47.45;98486.00;6268058;27;98718;-65
2022/05/28 06:08:05;;;;;;;;;5.00;4.25;;;;;18.27;46.66;98485.63;6286478;27;96661;-65
2022/05/28 06:11:08;;;;;;;;;4.25;4.00;;;;;18.18;46.15;98487.31;6265399;27;97122;-66
2022/05/28 06:14:12;;;;;;;;;4.00;4.00;;;;;18.30;45.81;98489.72;6266311;27;97403;-66
2022/05/28 06:17:15;;;;;;;;;4.00;3.40;;;;;18.42;45.07;98487.47;6263562;27;97915;-65
2022/05/28 06:20:20;;;;;;;;;3.33;3.00;;;;;18.32;43.23;98479.34;6278756;27;97367;-66
2022/05/28 06:23:23;;;;;;;;;3.20;2.80;;;;;18.31;43.45;98478.53;6285755;27;96456;-67
2022/05/28 06:26:27;;;;;;;;;3.00;3.00;;;;;18.49;44.05;98486.03;6267072;27;96663;-66
2022/05/28 06:29:30;;;;;;;;;3.50;3.00;;;;;18.53;43.33;98487.13;6267623;27;96985;-65
2022/05/28 06:32:34;;;;;;;;;4.40;4.00;;;;;18.52;43.06;98488.19;6248447;27;100241;-66
2022/05/28 06:35:38;;;;;;;;;3.25;3.25;;;;;18.70;43.23;98486.75;6275648;27;96656;-67
2022/05/28 06:38:42;;;;;;;;;5.40;4.40;;;;;19.08;42.82;98476.06;6286231;27;97195;-66
2022/05/28 06:41:46;;;;;;;;;6.00;5.00;;;;;19.16;42.11;98484.47;6294499;27;96638;-65
2022/05/28 06:44:56;;;;;;;;;6.00;5.40;;;;;19.40;42.48;98484.53;6278625;27;96775;-67
2022/05/28 06:48:00;;;;;;;;;6.00;5.00;;;;;19.77;42.13;98490.16;6272991;27;96345;-66
2022/05/28 06:51:04;;;;;;;;;5.00;4.00;;;;;19.75;41.07;98486.91;6291575;27;97006;-67
2022/05/28 06:54:08;;;;;;;;;4.00;4.00;;;;;19.94;40.86;98481.47;6271912;27;97438;-66
2022/05/28 06:57:11;;;;;;;;;4.20;4.00;;;;;20.15;40.75;98479.31;6255873;27;97765;-67
2022/05/28 07:00:16;;;;;;;;;6.25;5.25;;;;;20.15;40.22;98473.84;6289188;27;97858;-66
2022/05/28 07:03:21;;;;;;;;;3.00;3.00;;;;;20.14;39.33;98466.72;6288531;27;96893;-66
2022/05/28 07:06:29;;;;;;;;;4.00;4.00;;;;;20.38;39.11;98478.47;6278657;27;96516;-67
2022/05/28 07:09:32;;;;;;;;;4.00;3.00;;;;;20.26;38.49;98470.69;6288434;27;97549;-68
2022/05/28 07:12:35;;;;;;;;;3.20;3.20;;;;;20.34;38.30;98474.69;6288908;27;97571;-67
2022/05/28 07:15:39;;;;;;;;;5.50;5.00;;;;;20.23;38.56;98460.28;6267285;27;96809;-66
2022/05/28 07:18:43;;;;;;;;;5.50;4.00;;;;;20.53;38.32;98474.69;6287997;27;97377;-68
2022/05/28 07:21:47;;;;;;;;;3.80;3.00;;;;;20.71;38.12;98465.69;6286186;27;97786;-68
2022/05/28 07:24:53;;;;;;;;;4.00;4.00;;;;;20.69;37.08;98463.22;6287605;27;98502;-67
2022/05/28 07:27:57;;;;;;;;;5.00;4.00;;;;;20.70;36.32;98462.13;6288784;27;96649;-67
2022/05/28 07:31:02;;;;;;;;;3.80;2.80;;;;;20.73;37.59;98466.16;6282227;27;97786;-66
2022/05/28 07:34:06;;;;;;;;;2.00;2.00;;;;;20.85;36.97;98458.31;6284300;27;96499;-66
2022/05/28 07:37:10;;;;;;;;;3.00;3.00;;;;;20.86;36.58;98462.69;6288981;27;98242;-68
2022/05/28 07:40:14;;;;;;;;;4.00;2.75;;;;;21.11;36.87;98465.00;6289488;27;96634;-68
2022/05/28 07:43:18;;;;;;;;;4.00;4.00;;;;;21.16;36.89;98461.38;6288633;27;96711;-68
2022/05/28 07:46:23;;;;;;;;;3.00;3.00;;;;;21.40;36.54;98456.59;6263449;27;98394;-68
2022/05/28 07:49:27;;;;;;;;;3.00;2.00;;;;;21.67;36.03;98454.97;6289163;27;97430;-66
2022/05/28 07:52:31;;;;;;;;;3.00;2.00;;;;;21.77;34.70;98455.56;6283757;27;97518;-67
2022/05/28 07:55:35;;;;;;;;;2.25;2.00;;;;;21.87;33.91;98449.06;6274324;27;97035;-66
2022/05/28 07:58:39;;;;;;;;;4.00;3.75;;;;;22.06;33.71;98457.22;6276133;27;96655;-66
2022/05/28 08:01:42;;;;;;;;;3.00;3.00;;;;;21.94;33.95;98447.56;6286378;27;97822;-66
2022/05/28 08:04:46;;;;;;;;;2.25;2.00;;;;;22.07;32.59;98442.38;6274948;27;97408;-67
2022/05/28 08:07:51;;;;;;;;;2.00;2.00;;;;;21.74;32.74;98423.28;6252913;27;99673;-67
2022/05/28 08:10:54;;;;;;;;;2.00;1.00;;;;;22.13;32.57;98447.47;6285615;27;96506;-67
2022/05/28 08:13:58;;;;;;;;;1.00;1.00;;;;;22.18;32.19;98446.53;6282851;27;97411;-66
2022/05/28 08:17:08;;;;;;;;;3.40;2.00;;;;;22.00;32.13;98451.84;6278121;27;97175;-67
2022/05/28 08:20:12;;;;;;;;;2.00;2.00;;;;;22.21;31.27;98434.94;6285646;27;96611;-66
2022/05/28 08:23:18;;;;;;;;;2.00;2.00;;;;;22.18;31.20;98436.38;6266462;27;96758;-65
2022/05/28 08:26:22;;;;;;;;;2.00;2.00;;;;;22.47;31.71;98438.72;6289300;27;97393;-65
2022/05/28 08:29:25;;;;;;;;;2.40;1.00;;;;;22.80;31.28;98439.34;6288371;27;97456;-67
2022/05/28 08:32:29;;;;;;;;;2.00;1.00;;;;;22.72;29.70;98437.34;6288310;27;97572;-65
2022/05/28 08:35:34;;;;;;;;;2.00;2.00;;;;;22.66;29.55;98427.56;6274975;27;97229;-67
2022/05/28 08:38:40;;;;;;;;;1.00;1.00;;;;;22.78;29.79;98425.91;6251246;27;98295;-67
2022/05/28 08:41:48;;;;;;;;;2.00;1.80;;;;;22.63;28.82;98441.91;6269010;27;99998;-66
2022/05/28 08:44:53;;;;;;;;;2.00;1.00;;;;;22.69;28.76;98427.75;6268115;27;96823;-66
2022/05/28 08:48:01;;;;;;;;;2.00;2.00;;;;;22.62;29.74;98432.06;6287397;27;97449;-66
2022/05/28 08:51:09;;;;;;;;;2.00;2.00;;;;;22.47;29.57;98433.25;6289218;27;96647;-66
2022/05/28 08:54:25;;;;;;;;;1.00;1.00;;;;;22.75;28.61;98436.72;6287190;27;96765;-66
2022/05/28 08:57:38;;;;;;;;;1.00;1.00;;;;;22.70;29.01;98439.56;6266655;27;96913;-67
2022/05/28 09:00:45;;;;;;;;;1.50;1.00;;;;;22.62;27.60;98424.66;6280099;27;97543;-66
2022/05/28 09:03:54;;;;;;;;;2.00;2.00;;;;;22.94;28.00;98425.53;6286470;27;97155;-67
2022/05/28 09:07:04;;;;;;;;;1.00;1.00;;;;;23.46;27.72;98440.41;6286000;27;97425;-68
2022/05/28 09:10:11;;;;;;;;;0.75;0.25;;;;;23.57;26.96;98430.75;6267750;27;96501;-66
2022/05/28 09:13:23;;;;;;;;;3.00;2.00;;;;;23.15;26.95;98413.72;6286460;27;96650;-66
2022/05/28 09:16:30;;;;;;;;;1.00;1.00;;;;;23.61;27.68;98417.97;6269844;27;97939;-69
2022/05/28 09:19:37;;;;;;;;;1.00;1.00;;;;;23.79;26.43;98416.13;6288861;27;97139;-67
2022/05/28 09:22:40;;;;;;;;;2.00;2.00;;;;;24.10;26.81;98419.56;6284171;27;96683;-66
2022/05/28 09:25:49;;;;;;;;;2.00;2.00;;;;;24.06;25.86;98419.41;6245568;27;96903;-66
2022/05/28 09:29:09;;;;;;;;;1.00;1.00;;;;;24.01;25.68;98429.78;6287395;27;96870;-66
2022/05/28 09:32:20;;;;;;;;;1.00;1.00;;;;;23.98;25.75;98422.97;6263366;27;97324;-68
2022/05/28 09:35:40;;;;;;;;;2.00;2.00;;;;;23.46;25.97;98427.47;6254473;27;98416;-66
2022/05/28 09:38:55;;;;;;;;;2.00;2.00;;;;;23.27;26.27;98422.16;6278398;27;97000;-66
2022/05/28 09:42:09;;;;;;;;;1.00;1.00;;;;;23.12;27.19;98413.50;6267607;27;96552;-68
2022/05/28 09:45:22;;;;;;;;;2.00;2.00;;;;;23.52;26.66;98417.97;6287974;27;96312;-66
2022/05/28 09:48:28;;;;;;;;;2.00;1.40;;;;;23.17;26.40;98422.44;6287070;27;97753;-67
2022/05/28 09:51:33;;;;;;;;;1.00;1.00;;;;;23.28;26.83;98423.81;6269574;27;97356;-68
2022/05/28 09:54:38;;;;;;;;;2.00;2.00;;;;;23.52;26.87;98408.88;6287908;27;98039;-67
2022/05/28 09:57:56;;;;;;;;;2.00;2.00;;;;;23.86;27.17;98406.25;6268153;27;96667;-65
2022/05/28 10:01:12;;;;;;;;;4.00;4.00;;;;;23.86;26.52;98409.00;6279118;27;96456;-66
2022/05/28 10:04:31;;;;;;;;;3.40;2.60;;;;;24.32;26.45;98405.72;6286836;27;97534;-66
2022/05/28 10:07:37;;;;;;;;;2.00;2.00;;;;;24.25;26.32;98396.28;6268964;27;97005;-68
2022/05/28 10:10:40;;;;;;;;;2.00;2.00;;;;;23.90;25.64;98409.97;6243104;27;97809;-68
2022/05/28 10:13:47;;;;;;;;;2.00;2.00;;;;;23.53;25.90;98403.06;6248281;27;96700;-67
2022/05/28 10:16:56;;;;;;;;;3.00;2.00;;;;;23.39;26.27;98396.84;6287973;27;97002;-68
2022/05/28 10:20:04;;;;;;;;;2.00;2.00;;;;;23.29;26.68;98386.09;6286655;27;100109;-68
2022/05/28 10:23:14;;;;;;;;;2.00;2.00;;;;;23.19;27.42;98389.13;6291504;27;97049;-67
2022/05/28 10:26:21;;;;;;;;;2.60;2.00;;;;;23.33;26.94;98378.84;6290394;27;97406;-66
2022/05/28 10:29:30;;;;;;;;;2.40;2.00;;;;;23.79;27.27;98386.66;6291981;27;96259;-67
2022/05/28 10:32:37;;;;;;;;;2.00;2.00;;;;;23.41;27.52;98383.56;6271816;27;97122;-67
2022/05/28 10:35:41;;;;;;;;;2.00;1.00;;;;;23.84;26.97;98375.50;6265571;27;99489;-66
2022/05/28 10:38:46;;;;;;;;;2.00;0.00;;;;;24.27;27.20;98367.31;6269683;27;96875;-68
2022/05/28 10:41:53;;;;;;;;;1.00;1.00;;;;;24.59;26.74;98379.78;6290439;27;97073;-66
2022/05/28 10:44:58;;;;;;;;;1.40;1.00;;;;;24.65;25.92;98358.38;6254019;27;99493;-67
2022/05/28 10:48:27;;;;;;;;;2.00;1.00;;;;;24.73;24.96;98369.38;6290263;27;97272;-67
2022/05/28 10:51:38;;;;;;;;;1.00;1.00;;;;;25.02;24.73;98377.78;6291087;27;97491;-66
2022/05/28 10:54:52;;;;;;;;;2.00;1.00;;;;;24.63;24.15;98369.72;6290231;27;96596;-66
2022/05/28 10:58:11;;;;;;;;;2.00;2.00;;;;;24.38;24.39;98381.56;6290753;27;97473;-67
2022/05/28 11:01:33;;;;;;;;;3.00;3.00;;;;;24.14;24.35;98362.75;6289940;27;96843;-67
2022/05/28 11:05:01;;;;;;;;;3.00;3.00;;;;;24.19;24.90;98361.81;6290934;27;97437;-67
2022/05/28 11:08:13;;;;;;;;;1.00;1.00;;;;;23.85;25.46;98381.81;6262437;27;98872;-67
2022/05/28 11:11:37;;;;;;;;;2.00;1.00;;;;;23.59;25.50;98382.53;6288358;27;96692;-66
2022/05/28 11:15:08;;;;;;;;;3.00;3.00;;;;;23.67;26.42;98384.50;6249185;27;96948;-68
2022/05/28 11:18:47;;;;;;;;;1.60;1.00;;;;;23.46;27.08;98382.63;6289973;27;96501;-68
2022/05/28 11:22:26;;;;;;;;;2.00;2.00;;;;;22.80;27.29;98406.38;6290604;27;96667;-67
2022/05/28 11:25:47;;;;;;;;;2.75;2.75;;;;;22.10;28.41;98419.78;6289104;27;97531;-67
2022/05/28 11:29:18;;;;;;;;;1.20;1.20;;;;;21.64;29.53;98439.94;6289366;27;96563;-66
2022/05/28 11:32:26;;;;;;;;;3.00;3.00;;;;;21.51;29.31;98435.25;6290023;27;96994;-67
2022/05/28 11:35:44;;;;;;;;;1.50;1.00;;;;;20.83;30.15;98446.03;6282482;27;97446;-66
2022/05/28 11:38:54;;;;;;;;;2.50;2.00;;;;;20.52;31.34;98438.31;6290228;27;96750;-66
2022/05/28 11:42:05;;;;;;;;;1.00;1.00;;;;;20.01;32.24;98443.63;6268864;27;97810;-68
2022/05/28 11:45:16;;;;;;;;;1.00;1.00;;;;;19.54;33.10;98425.34;6265726;27;97562;-67
2022/05/28 11:48:25;;;;;;;;;2.00;1.00;;;;;19.53;32.36;98409.22;6282647;27;97446;-68
2022/05/28 11:51:37;;;;;;;;;2.00;1.00;;;;;19.64;32.30;98419.78;6290543;27;96706;-68
2022/05/28 11:54:45;;;;;;;;;1.00;1.00;;;;;19.78;32.41;98406.19;6287944;27;96706;-68
2022/05/28 11:57:55;;;;;;;;;1.00;1.00;;;;;20.40;31.94;98421.50;6269870;27;98478;-65
2022/05/28 12:01:03;;;;;;;;;0.50;0.50;;;;;20.79;30.08;98417.59;6264424;27;97748;-67
2022/05/28 12:04:07;;;;;;;;;1.00;0.00;;;;;21.24;30.19;98408.63;6271222;27;96822;-67
2022/05/28 12:07:16;;;;;;;;;0.00;0.00;;;;;21.89;29.27;98411.16;6285176;27;97155;-65
2022/05/28 12:10:37;;;;;;;;;1.00;1.00;;;;;22.27;29.51;98398.00;6254196;27;96755;-67
2022/05/28 12:13:49;;;;;;;;;1.00;1.00;;;;;22.94;28.79;98420.03;6288905;27;97449;-68
2022/05/28 12:17:08;;;;;;;;;2.00;2.00;;;;;22.99;28.36;98419.91;6244626;27;97366;-67
2022/05/28 12:20:13;;;;;;;;;2.40;2.00;;;;;22.81;28.72;98424.50;6284048;27;97364;-67
2022/05/28 12:23:28;;;;;;;;;1.00;1.00;;;;;22.54;29.50;98432.78;6283290;27;96693;-67
2022/05/28 12:30:02;;;;;;;;;1.00;1.00;;;;;21.80;30.83;98463.19;6254048;27;99672;-66
2022/05/28 12:33:05;;;;;;;;;1.00;1.00;;;;;21.48;30.83;98458.63;6252329;27;97795;-68
2022/05/28 12:36:20;;;;;;;;;1.00;1.00;;;;;21.25;32.16;98454.13;6267851;27;98373;-65
2022/05/28 12:39:38;;;;;;;;;2.00;1.00;;;;;20.72;34.51;98468.09;6269912;27;97630;-67
2022/05/28 12:42:42;;;;;;;;;1.00;1.00;;;;;19.60;35.54;98478.84;6252441;27;98388;-64
2022/05/28 12:45:48;;;;;;;;;3.00;3.00;;;;;19.27;37.43;98474.25;6260612;27;97045;-65
2022/05/28 12:49:04;;;;;;;;;2.00;2.00;;;;;19.12;38.58;98471.66;6273858;27;98009;-68
2022/05/28 12:52:26;;;;;;;;;1.80;1.80;;;;;19.28;39.31;98434.91;6287094;27;98387;-67
2022/05/28 12:55:35;;;;;;;;;2.00;2.00;;;;;19.62;37.89;98437.56;6259976;27;98013;-65
2022/05/28 12:58:39;;;;;;;;;2.75;2.75;;;;;19.94;37.87;98431.44;6285963;27;96622;-66
2022/05/28 13:02:02;;;;;;;;;2.00;2.00;;;;;20.13;36.38;98443.22;6259841;27;97173;-65
2022/05/28 13:05:10;;;;;;;;;3.00;3.00;;;;;20.42;36.70;98443.94;6256227;27;96906;-68
2022/05/28 13:08:18;;;;;;;;;2.20;2.00;;;;;20.66;35.47;98438.38;6262236;27;96761;-66
2022/05/28 13:11:30;;;;;;;;;1.40;1.00;;;;;20.88;35.29;98449.50;6256568;27;98361;-67
2022/05/28 13:14:54;;;;;;;;;2.00;2.00;;;;;;;;6261858;27;99706;-65
2022/05/28 13:18:29;;;;;;;;;2.00;1.00;;;;;20.97;33.39;98436.72;6259167;27;97043;-65
2022/05/28 13:21:58;;;;;;;;;1.00;1.00;;;;;20.94;33.88;98433.78;6245700;27;97767;-66
2022/05/28 13:25:23;;;;;;;;;1.00;1.00;;;;;21.15;34.09;98451.56;6248244;27;97525;-66
2022/05/28 13:29:04;;;;;;;;;1.00;1.00;;;;;21.18;33.57;98437.22;6261285;27;97385;-65
2022/05/28 13:32:14;;;;;;;;;1.00;1.00;;;;;21.54;33.12;98431.91;6238582;27;97772;-65
2022/05/28 13:35:19;;;;;;;;;1.00;1.00;;;;;21.42;32.13;98439.81;6257762;27;96551;-65
2022/05/28 13:38:27;;;;;;;;;2.00;2.00;;;;;21.60;31.97;98422.44;6259352;27;97950;-66
2022/05/28 13:41:44;;;;;;;;;1.40;1.40;;;;;21.84;31.74;98433.22;6254893;27;96645;-66
2022/05/28 13:44:48;;;;;;;;;1.00;1.00;;;;;21.69;32.15;98428.06;6258483;27;97938;-65
2022/05/28 13:47:54;;;;;;;;;1.00;1.00;;;;;21.94;30.87;98439.31;6239775;27;99386;-65
2022/05/28 13:51:02;;;;;;;;;1.00;1.00;;;;;21.94;31.68;98430.31;6258514;27;97093;-65
2022/05/28 13:54:11;;;;;;;;;2.00;1.00;;;;;22.08;31.77;98420.13;6240688;27;99702;-65
2022/05/28 13:57:14;;;;;;;;;3.40;2.40;;;;;21.75;30.97;98435.84;6254912;27;99923;-65
2022/05/28 14:00:25;;;;;;;;;2.00;1.00;;;;;21.46;31.24;98424.38;6262423;27;97345;-65
2022/05/28 14:03:31;;;;;;;;;1.00;1.00;;;;;21.04;31.77;98444.56;6272664;27;97963;-67
2022/05/28 14:06:38;;;;;;;;;2.80;2.40;;;;;20.85;31.63;98471.22;6280634;27;97456;-67
2022/05/28 14:09:46;;;;;;;;;2.60;2.00;;;;;20.79;31.51;98486.91;6287118;27;96904;-67
2022/05/28 14:12:51;;;;;;;;;3.00;2.00;;;;;20.46;32.26;98480.56;6268554;27;96894;-65
2022/05/28 14:15:58;;;;;;;;;2.00;2.00;;;;;20.21;34.24;98489.09;6286797;27;96761;-65
2022/05/28 14:19:03;;;;;;;;;2.40;2.00;;;;;19.74;36.43;98498.16;6285871;27;96673;-65
2022/05/28 14:22:19;;;;;;;;;2.00;2.00;;;;;19.24;37.25;98503.00;6264764;27;98374;-67
2022/05/28 14:25:27;;;;;;;;;1.00;1.00;;;;;18.67;38.58;98502.91;6276509;27;97064;-66
2022/05/28 14:28:32;;;;;;;;;1.00;1.00;;;;;18.46;40.03;98500.25;6263812;27;96708;-65
2022/05/28 14:31:37;;;;;;;;;0.00;0.00;;;;;18.29;40.90;98502.53;6282801;27;97494;-67
2022/05/28 14:34:43;;;;;;;;;1.00;1.00;;;;;18.01;41.44;98503.22;6287070;27;98550;-65
2022/05/28 14:37:46;;;;;;;;;2.00;2.00;;;;;17.80;42.85;98526.19;6266098;27;97891;-67
2022/05/28 14:40:53;;;;;;;;;0.20;0.20;;;;;17.64;43.92;98528.16;6270744;27;97588;-66
2022/05/28 14:43:57;;;;;;;;;2.00;1.60;;;;;17.63;42.63;98507.44;6256447;27;97622;-66
2022/05/28 14:47:03;;;;;;;;;1.00;1.00;;;;;17.69;42.10;98512.56;6245297;27;97727;-66